createdAt,value
2022-10-22T00:00:28.450Z,100.00
2022-10-22T00:02:32.287Z,100.00
2022-10-22T00:04:36.621Z,100.00
2022-10-22T00:06:40.401Z,100.00
2022-10-22T00:08:44.142Z,100.00
2022-10-22T00:10:47.870Z,100.00
2022-10-22T00:12:51.598Z,100.00
2022-10-22T00:14:56.584Z,100.00
2022-10-22T00:17:01.347Z,100.00
2022-10-22T00:19:05.322Z,100.00
2022-10-22T00:21:10.173Z,100.00
2022-10-22T00:23:14.248Z,100.00
2022-10-22T00:25:18.256Z,100.00
2022-10-22T00:27:22.144Z,100.00
2022-10-22T00:29:25.687Z,100.00
2022-10-22T00:31:31.153Z,100.00
2022-10-22T00:33:35.882Z,100.00
2022-10-22T00:35:40.037Z,100.00
2022-10-22T00:37:43.718Z,100.00
2022-10-22T00:39:47.439Z,100.00
2022-10-22T00:41:53.183Z,100.00
2022-10-22T00:44:00.079Z,100.00
2022-10-22T00:46:04.069Z,100.00
2022-10-22T00:48:12.163Z,100.00
2022-10-22T00:50:19.373Z,100.00
2022-10-22T00:52:23.553Z,100.00
2022-10-22T00:54:27.339Z,100.00
2022-10-22T00:56:31.041Z,100.00
2022-10-22T00:58:43.259Z,100.00
2022-10-22T01:00:47.219Z,100.00
2022-10-22T01:02:52.918Z,100.00
2022-10-22T01:04:58.226Z,100.00
2022-10-22T01:07:02.587Z,100.00
2022-10-22T01:09:18.973Z,100.00
2022-10-22T01:11:29.050Z,100.00
2022-10-22T01:13:44.663Z,100.00
2022-10-22T01:15:57.542Z,100.00
2022-10-22T01:18:07.759Z,100.00
2022-10-22T01:20:30.430Z,100.00
2022-10-22T01:22:38.223Z,100.00
2022-10-22T01:25:01.672Z,100.00
2022-10-22T01:27:26.380Z,100.00
2022-10-22T01:29:35.420Z,100.00
2022-10-22T01:31:45.340Z,100.00
2022-10-22T01:33:51.746Z,100.00
2022-10-22T01:35:56.704Z,100.00
2022-10-22T01:38:05.759Z,100.00
2022-10-22T01:40:12.536Z,100.00
2022-10-22T01:42:16.952Z,100.00
2022-10-22T01:44:28.290Z,100.00
2022-10-22T01:46:34.666Z,100.00
2022-10-22T01:48:50.201Z,100.00
2022-10-22T01:51:09.848Z,100.00
2022-10-22T01:53:27.058Z,100.00
2022-10-22T01:55:38.949Z,100.00
2022-10-22T01:57:52.003Z,100.00
2022-10-22T02:00:02.846Z,100.00
2022-10-22T02:02:15.242Z,100.00
2022-10-22T02:04:24.340Z,100.00
2022-10-22T02:06:31.270Z,100.00
2022-10-22T02:08:37.497Z,100.00
2022-10-22T02:10:43.990Z,100.00
2022-10-22T02:12:52.470Z,100.00
2022-10-22T02:14:59.018Z,100.00
2022-10-22T02:17:03.370Z,100.00
2022-10-22T02:19:17.238Z,100.00
2022-10-22T02:21:21.850Z,100.00
2022-10-22T02:23:26.108Z,100.00
2022-10-22T02:25:33.711Z,100.00
2022-10-22T02:27:44.401Z,100.00
2022-10-22T02:29:57.923Z,100.00
2022-10-22T02:32:05.573Z,100.00
2022-10-22T02:34:15.660Z,100.00
2022-10-22T02:36:21.084Z,100.00
2022-10-22T02:38:27.021Z,100.00
2022-10-22T02:40:32.870Z,100.00
2022-10-22T02:42:38.133Z,100.00
2022-10-22T02:44:42.274Z,100.00
2022-10-22T02:46:46.030Z,100.00
2022-10-22T02:48:50.494Z,100.00
2022-10-22T02:50:55.815Z,100.00
2022-10-22T02:52:59.637Z,100.00
2022-10-22T02:55:03.746Z,100.00
2022-10-22T02:57:07.998Z,100.00
2022-10-22T02:59:12.398Z,100.00
2022-10-22T03:01:16.461Z,100.00
2022-10-22T03:03:20.284Z,100.00
2022-10-22T03:05:24.292Z,100.00
2022-10-22T03:07:29.603Z,100.00
2022-10-22T03:09:33.379Z,100.00
2022-10-22T03:11:37.161Z,100.00
2022-10-22T03:13:41.001Z,100.00
2022-10-22T03:15:44.794Z,100.00
2022-10-22T03:17:48.409Z,100.00
2022-10-22T03:19:52.522Z,100.00
2022-10-22T03:21:59.013Z,100.00
2022-10-22T03:24:11.466Z,100.00
2022-10-22T03:26:16.223Z,100.00
2022-10-22T03:28:20.870Z,100.00
2022-10-22T03:30:24.539Z,100.00
2022-10-22T03:32:28.495Z,100.00
2022-10-22T03:34:32.490Z,100.00
2022-10-22T03:36:36.815Z,100.00
2022-10-22T03:38:42.060Z,100.00
2022-10-22T03:40:49.185Z,100.00
2022-10-22T03:42:53.029Z,100.00
2022-10-22T03:44:56.875Z,100.00
2022-10-22T03:47:02.677Z,100.00
2022-10-22T03:49:06.782Z,100.00
2022-10-22T03:51:11.055Z,100.00
2022-10-22T03:53:14.567Z,100.00
2022-10-22T03:55:17.942Z,100.00
2022-10-22T03:57:22.757Z,100.00
2022-10-22T03:59:26.263Z,100.00
2022-10-22T04:01:30.859Z,100.00
2022-10-22T04:03:34.484Z,100.00
2022-10-22T04:05:37.832Z,100.00
2022-10-22T04:07:41.657Z,100.00
2022-10-22T04:09:45.217Z,100.00
2022-10-22T04:11:48.770Z,100.00
2022-10-22T04:13:53.451Z,100.00
2022-10-22T04:15:56.810Z,100.00
2022-10-22T04:18:00.216Z,100.00
2022-10-22T04:20:03.958Z,100.00
2022-10-22T04:22:07.300Z,100.00
2022-10-22T04:24:10.872Z,100.00
2022-10-22T04:26:14.783Z,100.00
2022-10-22T04:28:18.142Z,100.00
2022-10-22T04:30:22.881Z,100.00
2022-10-22T04:32:26.282Z,100.00
2022-10-22T04:34:31.572Z,100.00
2022-10-22T04:36:35.597Z,100.00
2022-10-22T04:38:39.396Z,100.00
2022-10-22T04:40:42.855Z,100.00
2022-10-22T04:42:46.220Z,100.00
2022-10-22T04:44:49.707Z,100.00
2022-10-22T04:46:54.499Z,100.00
2022-10-22T04:49:00.606Z,100.00
2022-10-22T04:51:04.302Z,100.00
2022-10-22T04:53:08.538Z,100.00
2022-10-22T04:55:12.286Z,100.00
2022-10-22T04:57:16.900Z,100.00
2022-10-22T04:59:20.226Z,100.00
2022-10-22T05:01:26.059Z,100.00
2022-10-22T05:03:30.938Z,100.00
2022-10-22T05:05:34.498Z,100.00
2022-10-22T05:07:38.206Z,100.00
2022-10-22T05:09:42.499Z,100.00
2022-10-22T05:11:48.962Z,100.00
2022-10-22T05:13:54.893Z,100.00
2022-10-22T05:16:02.940Z,100.00
2022-10-22T05:18:08.802Z,100.00
2022-10-22T05:20:13.632Z,100.00
2022-10-22T05:22:16.997Z,100.00
2022-10-22T05:24:20.264Z,100.00
2022-10-22T05:26:25.274Z,100.00
2022-10-22T05:28:28.735Z,100.00
2022-10-22T05:30:32.828Z,100.00
2022-10-22T05:32:36.845Z,100.00
2022-10-22T05:34:40.297Z,100.00
2022-10-22T05:36:45.203Z,100.00
2022-10-22T05:38:49.125Z,100.00
2022-10-22T05:41:01.514Z,100.00
2022-10-22T05:43:04.814Z,100.00
2022-10-22T05:45:09.098Z,99.89
2022-10-22T05:47:12.343Z,99.95
2022-10-22T05:49:16.938Z,100.00
2022-10-22T05:51:20.866Z,99.96
2022-10-22T05:53:25.661Z,100.00
2022-10-22T05:55:28.980Z,100.00
2022-10-22T05:57:32.507Z,99.84
2022-10-22T05:59:35.909Z,99.55
2022-10-22T06:01:41.077Z,99.23
2022-10-22T06:03:44.676Z,98.36
2022-10-22T06:05:48.066Z,98.09
2022-10-22T06:07:51.436Z,98.72
2022-10-22T06:09:56.251Z,98.08
2022-10-22T06:12:00.199Z,97.68
2022-10-22T06:14:03.716Z,98.26
2022-10-22T06:16:07.097Z,97.04
2022-10-22T06:18:11.023Z,97.94
2022-10-22T06:20:14.917Z,97.48
2022-10-22T06:22:18.215Z,97.17
2022-10-22T06:24:21.437Z,96.32
2022-10-22T06:26:26.319Z,96.14
2022-10-22T06:28:29.880Z,95.98
2022-10-22T06:30:33.171Z,96.02
2022-10-22T06:32:36.451Z,95.53
2022-10-22T06:34:39.909Z,96.34
2022-10-22T06:36:45.308Z,96.65
2022-10-22T06:38:48.840Z,96.49
2022-10-22T06:40:52.109Z,96.04
2022-10-22T06:42:56.923Z,95.49
2022-10-22T06:47:08.607Z,96.04
2022-10-22T06:49:15.092Z,95.52
2022-10-22T06:51:19.193Z,95.78
2022-10-22T06:53:22.468Z,96.01
2022-10-22T06:55:25.729Z,95.48
2022-10-22T06:57:28.980Z,95.29
2022-10-22T06:59:33.880Z,94.96
2022-10-22T07:01:37.234Z,95.58
2022-10-22T07:03:41.341Z,95.02
2022-10-22T07:05:44.664Z,94.59
2022-10-22T07:07:47.918Z,94.62
2022-10-22T07:09:51.543Z,93.56
2022-10-22T07:11:54.894Z,93.26
2022-10-22T07:14:00.034Z,93.12
2022-10-22T07:16:05.550Z,92.66
2022-10-22T07:18:08.787Z,92.35
2022-10-22T07:20:12.962Z,92.56
2022-10-22T07:22:16.280Z,92.09
2022-10-22T07:24:19.669Z,91.48
2022-10-22T07:26:25.133Z,91.51
2022-10-22T07:28:28.758Z,91.76
2022-10-22T07:30:31.991Z,91.43
2022-10-22T07:32:37.218Z,91.40
2022-10-22T07:34:43.111Z,91.22
2022-10-22T07:36:47.337Z,91.23
2022-10-22T07:38:55.815Z,91.50
2022-10-22T07:40:59.419Z,91.04
2022-10-22T07:43:03.091Z,90.85
2022-10-22T07:45:07.262Z,90.47
2022-10-22T07:47:10.491Z,90.92
2022-10-22T07:49:15.178Z,90.39
2022-10-22T07:51:19.174Z,90.23
2022-10-22T07:53:22.774Z,90.85
2022-10-22T07:55:26.356Z,90.59
2022-10-22T07:57:29.762Z,89.90
2022-10-22T07:59:33.362Z,90.12
2022-10-22T08:01:36.754Z,90.53
2022-10-22T08:03:40.141Z,90.38
2022-10-22T08:05:45.281Z,90.83
2022-10-22T08:07:48.769Z,89.83
2022-10-22T08:09:52.169Z,90.16
2022-10-22T08:11:55.659Z,89.43
2022-10-22T08:13:59.350Z,90.31
2022-10-22T08:16:03.268Z,90.32
2022-10-22T08:18:07.234Z,89.76
2022-10-22T08:20:12.951Z,89.98
2022-10-22T08:22:18.134Z,89.05
2022-10-22T08:24:21.444Z,88.79
2022-10-22T08:26:24.826Z,89.36
2022-10-22T08:28:29.809Z,89.02
2022-10-22T08:30:34.164Z,89.22
2022-10-22T08:32:37.750Z,87.91
2022-10-22T08:34:41.265Z,88.31
2022-10-22T08:36:44.823Z,86.20
2022-10-22T08:38:49.540Z,85.24
2022-10-22T08:40:55.574Z,86.03
2022-10-22T08:43:15.094Z,85.13
2022-10-22T08:45:25.650Z,84.16
2022-10-22T08:47:47.991Z,85.03
2022-10-22T08:49:51.612Z,84.93
2022-10-22T08:51:56.285Z,84.28
2022-10-22T08:54:15.739Z,83.56
2022-10-22T08:56:19.130Z,82.45
2022-10-22T08:58:30.760Z,82.78
2022-10-22T09:00:38.244Z,82.14
2022-10-22T09:02:52.318Z,82.38
2022-10-22T09:05:03.789Z,80.87
2022-10-22T09:07:07.814Z,79.75
2022-10-22T09:09:16.947Z,79.55
2022-10-22T09:11:27.349Z,75.79
2022-10-22T09:13:31.432Z,77.02
2022-10-22T09:15:34.900Z,77.79
2022-10-22T09:17:47.058Z,76.24
2022-10-22T09:20:04.165Z,76.57
2022-10-22T09:22:24.061Z,77.51
2022-10-22T09:24:38.496Z,78.19
2022-10-22T09:26:43.049Z,78.69
2022-10-22T09:28:51.783Z,78.61
2022-10-22T09:30:55.935Z,78.14
2022-10-22T09:33:03.555Z,78.80
2022-10-22T09:35:12.981Z,79.43
2022-10-22T09:37:20.038Z,79.25
2022-10-22T09:39:25.861Z,78.86
2022-10-22T09:41:32.092Z,78.52
2022-10-22T09:43:36.406Z,78.37
2022-10-22T09:45:40.272Z,79.08
2022-10-22T09:48:00.989Z,78.44
2022-10-22T09:50:23.021Z,77.81
2022-10-22T09:52:32.328Z,78.04
2022-10-22T09:54:44.185Z,77.33
2022-10-22T09:56:56.091Z,77.97
2022-10-22T09:59:00.282Z,77.02
2022-10-22T10:01:04.307Z,76.85
2022-10-22T10:03:08.404Z,76.29
2022-10-22T10:05:21.211Z,75.86
2022-10-22T10:07:26.971Z,75.05
2022-10-22T10:09:36.660Z,75.05
2022-10-22T10:11:45.070Z,73.13
2022-10-22T10:14:00.962Z,72.99
2022-10-22T10:16:14.352Z,73.51
2022-10-22T10:18:26.902Z,73.85
2022-10-22T10:20:41.271Z,72.42
2022-10-22T10:22:56.554Z,70.97
2022-10-22T10:25:21.386Z,69.42
2022-10-22T10:27:32.515Z,69.44
2022-10-22T10:29:48.734Z,69.35
2022-10-22T10:32:08.048Z,68.30
2022-10-22T10:34:24.375Z,67.51
2022-10-22T10:36:37.330Z,67.05
2022-10-22T10:38:57.193Z,67.38
2022-10-22T10:41:07.738Z,67.75
2022-10-22T10:43:15.356Z,67.68
2022-10-22T10:45:26.859Z,68.70
2022-10-22T10:47:55.163Z,68.17
2022-10-22T10:50:14.561Z,68.29
2022-10-22T10:52:27.722Z,68.58
2022-10-22T10:56:53.944Z,68.41
2022-10-22T10:59:06.488Z,66.93
2022-10-22T11:01:23.306Z,67.33
2022-10-22T11:04:02.082Z,68.44
2022-10-22T11:06:11.288Z,68.67
2022-10-22T11:08:19.827Z,69.10
2022-10-22T11:10:30.162Z,67.27
2022-10-22T11:12:40.901Z,68.31
2022-10-22T11:14:58.251Z,69.15
2022-10-22T11:17:06.290Z,68.64
2022-10-22T11:19:22.724Z,69.42
2022-10-22T11:21:35.995Z,69.65
2022-10-22T11:23:46.720Z,69.88
2022-10-22T11:25:53.542Z,69.94
2022-10-22T11:28:09.089Z,69.69
2022-10-22T11:30:16.970Z,69.86
2022-10-22T11:32:26.747Z,70.19
2022-10-22T11:34:37.863Z,69.76
2022-10-22T11:36:43.532Z,70.48
2022-10-22T11:38:47.785Z,70.53
2022-10-22T11:40:56.226Z,71.68
2022-10-22T11:43:01.379Z,72.01
2022-10-22T11:45:29.006Z,73.21
2022-10-22T11:47:38.635Z,73.50
2022-10-22T11:49:56.824Z,73.50
2022-10-22T11:52:25.180Z,74.00
2022-10-22T11:54:43.731Z,74.91
2022-10-22T11:56:47.767Z,75.65
2022-10-22T11:58:54.012Z,75.92
2022-10-22T12:01:07.364Z,75.72
2022-10-22T12:03:25.627Z,76.59
2022-10-22T12:05:38.413Z,76.97
2022-10-22T12:07:54.671Z,77.39
2022-10-22T12:10:00.274Z,77.67
2022-10-22T12:12:16.647Z,78.28
2022-10-22T12:14:27.167Z,78.83
2022-10-22T12:16:55.191Z,79.03
2022-10-22T12:19:14.472Z,79.20
2022-10-22T12:21:19.848Z,80.02
2022-10-22T12:23:31.765Z,81.17
2022-10-22T12:25:37.060Z,81.18
2022-10-22T12:27:42.939Z,81.60
2022-10-22T12:29:47.168Z,82.32
2022-10-22T12:31:51.403Z,82.41
2022-10-22T12:33:59.046Z,82.87
2022-10-22T12:36:05.039Z,82.78
2022-10-22T12:38:14.842Z,83.67
2022-10-22T12:40:21.748Z,83.48
2022-10-22T12:42:26.911Z,83.88
2022-10-22T12:44:30.874Z,84.12
2022-10-22T12:46:37.348Z,83.72
2022-10-22T12:48:45.044Z,84.06
2022-10-22T12:50:52.636Z,84.27
2022-10-22T12:52:57.765Z,84.68
2022-10-22T12:55:01.534Z,84.59
2022-10-22T12:57:05.485Z,84.31
2022-10-22T12:59:17.897Z,84.35
2022-10-22T13:01:21.637Z,84.72
2022-10-22T13:03:29.851Z,85.09
2022-10-22T13:05:39.240Z,85.84
2022-10-22T13:07:45.218Z,85.87
2022-10-22T13:09:59.858Z,86.09
2022-10-22T13:12:07.116Z,85.84
2022-10-22T13:14:21.488Z,86.03
2022-10-22T13:16:28.110Z,85.85
2022-10-22T13:18:34.794Z,85.92
2022-10-22T13:20:38.667Z,85.73
2022-10-22T13:22:43.608Z,85.12
2022-10-22T13:24:52.083Z,84.59
2022-10-22T13:26:56.401Z,84.82
2022-10-22T13:29:02.521Z,84.20
2022-10-22T13:31:13.345Z,83.96
2022-10-22T13:33:26.491Z,83.22
2022-10-22T13:35:32.267Z,82.38
2022-10-22T13:37:38.214Z,82.15
2022-10-22T13:39:42.290Z,81.58
2022-10-22T13:41:48.080Z,81.46
2022-10-22T13:43:52.187Z,81.04
2022-10-22T13:45:59.061Z,79.88
2022-10-22T13:48:02.774Z,80.98
2022-10-22T13:50:14.926Z,81.09
2022-10-22T13:52:42.235Z,80.11
2022-10-22T13:54:45.928Z,80.22
2022-10-22T13:56:51.074Z,80.54
2022-10-22T13:58:54.643Z,81.33
2022-10-22T14:01:00.916Z,80.70
2022-10-22T14:03:04.690Z,80.69
2022-10-22T14:05:09.745Z,79.46
2022-10-22T14:07:16.899Z,79.57
2022-10-22T14:09:27.919Z,79.51
2022-10-22T14:11:32.915Z,79.58
2022-10-22T14:13:38.527Z,79.70
2022-10-22T14:15:43.404Z,79.11
2022-10-22T14:17:55.725Z,79.74
2022-10-22T14:19:59.538Z,79.86
2022-10-22T14:22:06.330Z,79.41
2022-10-22T14:24:13.210Z,78.92
2022-10-22T14:26:23.983Z,79.22
2022-10-22T14:28:29.645Z,79.69
2022-10-22T14:30:36.914Z,80.12
2022-10-22T14:32:41.363Z,80.76
2022-10-22T14:34:47.068Z,81.09
2022-10-22T14:36:51.159Z,80.99
2022-10-22T14:38:54.930Z,81.35
2022-10-22T14:41:01.572Z,81.46
2022-10-22T14:43:05.434Z,81.94
2022-10-22T14:45:14.449Z,82.50
2022-10-22T14:47:20.066Z,82.52
2022-10-22T14:49:24.017Z,82.96
2022-10-22T14:51:28.938Z,82.62
2022-10-22T14:53:33.015Z,82.95
2022-10-22T14:55:36.754Z,83.39
2022-10-22T14:57:41.168Z,83.13
2022-10-22T14:59:45.243Z,82.90
2022-10-22T15:01:48.936Z,83.70
2022-10-22T15:03:54.619Z,83.80
2022-10-22T15:05:58.652Z,84.08
2022-10-22T15:08:02.820Z,84.45
2022-10-22T15:10:08.391Z,84.76
2022-10-22T15:12:12.352Z,85.02
2022-10-22T15:14:16.564Z,84.97
2022-10-22T15:16:21.004Z,84.73
2022-10-22T15:18:25.928Z,85.15
2022-10-22T15:20:31.451Z,85.20
2022-10-22T15:22:36.568Z,84.97
2022-10-22T15:24:41.072Z,84.63
2022-10-22T15:26:45.028Z,83.83
2022-10-22T15:28:49.157Z,83.63
2022-10-22T15:30:56.824Z,83.24
2022-10-22T15:33:01.574Z,83.06
2022-10-22T15:35:06.153Z,83.04
2022-10-22T15:37:14.184Z,82.54
2022-10-22T15:39:17.975Z,83.15
2022-10-22T15:41:22.064Z,83.53
2022-10-22T15:43:26.411Z,83.80
2022-10-22T15:45:30.467Z,83.56
2022-10-22T15:47:34.205Z,83.93
2022-10-22T15:49:40.054Z,83.52
2022-10-22T15:51:43.624Z,83.15
2022-10-22T15:53:53.125Z,83.19
2022-10-22T15:55:56.782Z,83.43
2022-10-22T15:58:03.272Z,83.51
2022-10-22T16:00:09.330Z,83.09
2022-10-22T16:02:16.576Z,82.85
2022-10-22T16:04:20.739Z,83.21
2022-10-22T16:06:24.543Z,83.61
2022-10-22T16:08:29.047Z,83.88
2022-10-22T16:10:34.195Z,83.43
2022-10-22T16:12:38.075Z,84.03
2022-10-22T16:14:42.284Z,83.79
2022-10-22T16:16:47.945Z,84.03
2022-10-22T16:18:51.885Z,83.45
2022-10-22T16:20:55.636Z,83.90
2022-10-22T16:22:59.542Z,84.16
2022-10-22T16:25:03.071Z,85.09
2022-10-22T16:27:08.409Z,84.85
2022-10-22T16:29:12.960Z,85.16
2022-10-22T16:31:20.061Z,85.73
2022-10-22T16:33:24.203Z,86.17
2022-10-22T16:35:28.288Z,85.66
2022-10-22T16:37:32.564Z,85.53
2022-10-22T16:39:35.945Z,86.13
2022-10-22T16:41:39.730Z,86.47
2022-10-22T16:43:47.276Z,87.03
2022-10-22T16:45:51.049Z,87.78
2022-10-22T16:47:55.176Z,88.08
2022-10-22T16:50:01.173Z,88.38
2022-10-22T16:52:05.287Z,88.49
2022-10-22T16:54:11.439Z,88.40
2022-10-22T16:56:18.505Z,88.43
2022-10-22T16:58:22.781Z,88.74
2022-10-22T17:00:28.370Z,88.80
2022-10-22T17:02:59.982Z,88.98
2022-10-22T17:05:05.738Z,89.56
2022-10-22T17:07:09.550Z,90.13
2022-10-22T17:09:15.233Z,90.43
2022-10-22T17:11:22.541Z,90.62
2022-10-22T17:13:28.452Z,90.71
2022-10-22T17:15:34.729Z,91.29
2022-10-22T17:17:39.587Z,91.60
2022-10-22T17:19:43.483Z,91.13
2022-10-22T17:21:49.092Z,90.99
2022-10-22T17:23:57.668Z,91.71
2022-10-22T17:26:06.159Z,92.12
2022-10-22T17:28:13.576Z,92.30
2022-10-22T17:30:23.412Z,92.75
2022-10-22T17:32:32.367Z,92.94
2022-10-22T17:34:36.094Z,93.18
2022-10-22T17:36:39.943Z,93.66
2022-10-22T17:38:45.515Z,94.10
2022-10-22T17:40:49.689Z,94.58
2022-10-22T17:42:53.794Z,94.82
2022-10-22T17:44:57.639Z,95.40
2022-10-22T17:47:02.060Z,95.66
2022-10-22T17:49:11.201Z,96.28
2022-10-22T17:51:15.146Z,96.99
2022-10-22T17:53:18.709Z,97.12
2022-10-22T17:55:22.558Z,97.71
2022-10-22T17:57:26.448Z,97.99
2022-10-22T17:59:30.184Z,98.29
2022-10-22T18:01:36.542Z,98.49
2022-10-22T18:03:40.361Z,98.67
2022-10-22T18:05:44.990Z,99.22
2022-10-22T18:07:48.634Z,99.89
2022-10-22T18:09:52.261Z,100.00
2022-10-22T18:11:57.083Z,100.00
2022-10-22T18:14:01.232Z,100.00
2022-10-22T18:16:05.611Z,100.00
2022-10-22T18:18:09.748Z,100.00
2022-10-22T18:20:16.665Z,100.00
2022-10-22T18:22:21.860Z,100.00
2022-10-22T18:24:25.641Z,100.00
2022-10-22T18:26:30.028Z,100.00
2022-10-22T18:28:36.482Z,100.00
2022-10-22T18:30:41.193Z,100.00
2022-10-22T18:32:45.762Z,100.00
2022-10-22T18:34:49.744Z,100.00
2022-10-22T18:36:53.695Z,100.00
2022-10-22T18:39:00.839Z,100.00
2022-10-22T18:41:04.548Z,100.00
2022-10-22T18:43:08.125Z,100.00
2022-10-22T18:45:12.226Z,100.00
2022-10-22T18:47:16.744Z,100.00
2022-10-22T18:49:20.792Z,100.00
2022-10-22T18:51:25.614Z,100.00
2022-10-22T18:53:29.892Z,100.00
2022-10-22T18:55:37.776Z,100.00
2022-10-22T18:57:41.775Z,100.00
2022-10-22T18:59:45.520Z,100.00
2022-10-22T19:01:49.734Z,100.00
2022-10-22T19:03:53.792Z,100.00
2022-10-22T19:06:02.988Z,100.00
2022-10-22T19:08:09.995Z,100.00
2022-10-22T19:10:14.076Z,100.00
2022-10-22T19:12:23.084Z,100.00
2022-10-22T19:14:27.306Z,100.00
2022-10-22T19:16:30.979Z,100.00
2022-10-22T19:18:35.538Z,100.00
2022-10-22T19:20:39.399Z,100.00
2022-10-22T19:22:44.461Z,100.00
2022-10-22T19:24:50.729Z,100.00
2022-10-22T19:26:54.929Z,100.00
2022-10-22T19:29:00.984Z,100.00
2022-10-22T19:31:07.974Z,100.00
2022-10-22T19:33:11.756Z,100.00
2022-10-22T19:35:18.419Z,100.00
2022-10-22T19:37:27.340Z,100.00
2022-10-22T19:39:31.176Z,100.00
2022-10-22T19:41:35.570Z,100.00
2022-10-22T19:43:39.338Z,100.00
2022-10-22T19:45:44.521Z,100.00
2022-10-22T19:47:49.012Z,100.00
2022-10-22T19:49:53.856Z,100.00
2022-10-22T19:51:59.649Z,100.00
2022-10-22T19:54:06.646Z,100.00
2022-10-22T19:56:12.746Z,100.00
2022-10-22T19:58:17.057Z,100.00
2022-10-22T20:00:21.681Z,100.00
2022-10-22T20:02:26.832Z,100.00
2022-10-22T20:04:30.790Z,100.00
2022-10-22T20:06:34.619Z,100.00
2022-10-22T20:08:39.970Z,100.00
2022-10-22T20:10:45.190Z,100.00
2022-10-22T20:12:49.203Z,100.00
2022-10-22T20:14:54.193Z,100.00
2022-10-22T20:16:57.998Z,100.00
2022-10-22T20:19:07.701Z,100.00
2022-10-22T20:21:15.809Z,100.00
2022-10-22T20:23:19.961Z,100.00
2022-10-22T20:25:23.637Z,100.00
2022-10-22T20:27:27.357Z,100.00
2022-10-22T20:29:31.218Z,100.00
2022-10-22T20:31:36.266Z,100.00
2022-10-22T20:33:39.804Z,100.00
2022-10-22T20:35:45.360Z,100.00
2022-10-22T20:37:49.729Z,100.00
2022-10-22T20:39:53.540Z,100.00
2022-10-22T20:41:58.419Z,100.00
2022-10-22T20:44:02.779Z,100.00
2022-10-22T20:46:06.893Z,100.00
2022-10-22T20:48:10.760Z,100.00
2022-10-22T20:50:23.340Z,100.00
2022-10-22T20:52:28.332Z,100.00
2022-10-22T20:54:32.312Z,100.00
2022-10-22T20:56:36.902Z,100.00
2022-10-22T20:58:42.140Z,100.00
2022-10-22T21:00:46.278Z,100.00
2022-10-22T21:02:50.379Z,100.00
2022-10-22T21:04:54.098Z,100.00
2022-10-22T21:06:58.586Z,100.00
2022-10-22T21:09:03.785Z,100.00
2022-10-22T21:11:07.443Z,100.00
2022-10-22T21:13:11.161Z,100.00
2022-10-22T21:15:14.833Z,100.00
2022-10-22T21:17:18.499Z,100.00
2022-10-22T21:19:23.291Z,100.00
2022-10-22T21:21:27.336Z,100.00
2022-10-22T21:23:31.274Z,100.00
2022-10-22T21:25:40.676Z,100.00
2022-10-22T21:27:46.947Z,100.00
2022-10-22T21:29:50.603Z,100.00
2022-10-22T21:31:54.839Z,100.00
2022-10-22T21:33:58.539Z,100.00
2022-10-22T21:36:02.924Z,100.00
2022-10-22T21:38:08.026Z,100.00
2022-10-22T21:40:13.444Z,100.00
2022-10-22T21:42:19.020Z,100.00
2022-10-22T21:44:22.821Z,100.00
2022-10-22T21:46:28.683Z,100.00
2022-10-22T21:48:32.546Z,100.00
2022-10-22T21:50:39.631Z,100.00
2022-10-22T21:52:43.407Z,100.00
2022-10-22T21:54:49.164Z,100.00
2022-10-22T21:56:53.677Z,100.00
2022-10-22T21:59:00.771Z,100.00
2022-10-22T22:01:11.419Z,100.00
2022-10-22T22:03:26.967Z,100.00
2022-10-22T22:05:38.719Z,100.00
2022-10-22T22:07:43.843Z,100.00
2022-10-22T22:09:53.533Z,100.00
2022-10-22T22:12:11.989Z,100.00
2022-10-22T22:14:27.754Z,100.00
2022-10-22T22:16:59.918Z,100.00
2022-10-22T22:19:35.568Z,100.00
2022-10-22T22:25:24.603Z,100.00
2022-10-22T22:28:34.638Z,100.00
2022-10-22T22:30:27.971Z,100.00
2022-10-22T22:32:56.161Z,100.00
2022-10-22T22:42:55.294Z,100.00
2022-10-22T22:48:44.205Z,100.00
2022-10-22T22:56:46.272Z,100.00
2022-10-22T22:59:26.932Z,99.26
2022-10-22T23:16:39.962Z,98.05
2022-10-22T23:18:53.007Z,98.82
2022-10-22T23:22:35.303Z,98.99
2022-10-22T23:36:08.392Z,100.00
2022-10-22T23:38:17.261Z,100.00
2022-10-22T23:44:17.396Z,100.00
